Time;durP1;ratioP1;P1;durP2;ratioP2;P2;SDS_P1;SDS_P2;PMS_P1;PMS_P2;Temp;Humidity;BMP_temperature;BMP_pressure;BME280_temperature;BME280_humidity;BME280_pressure;Samples;Min_cycle;Max_cycle;Signal;HPM_P1;HPM_P2
2023/06/29 01:25:20;;;;;;;34.33;25.20;;;;;;;17.61;100.00;101574.94;4647165;29;20051;-81
2023/06/29 01:27:49;;;;;;;36.80;27.13;;;;;;;17.61;100.00;101572.28;4947961;29;20055;-82
2023/06/29 01:30:17;;;;;;;36.63;26.63;;;;;;;17.62;100.00;101569.59;4931778;29;20059;-82
2023/06/29 01:32:45;;;;;;;41.05;26.60;;;;;;;17.62;100.00;101560.75;4913330;28;20415;-82
2023/06/29 01:35:13;;;;;;;40.08;26.67;;;;;;;17.64;100.00;101564.25;4945881;28;20066;-81
2023/06/29 01:37:52;;;;;;;44.60;28.38;;;;;;;17.64;100.00;101561.59;4978536;28;20055;-82
2023/06/29 01:40:26;;;;;;;41.80;28.25;;;;;;;17.64;100.00;101558.94;4948791;29;20050;-81
2023/06/29 01:42:55;;;;;;;43.08;28.58;;;;;;;17.64;100.00;101553.59;4962777;28;20591;-81
2023/06/29 01:45:25;;;;;;;42.30;28.10;;;;;;;17.63;100.00;101547.38;4963059;28;20067;-81
2023/06/29 01:47:55;;;;;;;49.30;30.50;;;;;;;17.63;100.00;101544.69;4953599;28;20510;-81
2023/06/29 01:50:24;;;;;;;43.45;29.80;;;;;;;17.64;100.00;101550.94;4968418;28;20036;-82
2023/06/29 01:52:52;;;;;;;51.08;28.80;;;;;;;17.62;100.00;101540.28;4949865;29;20047;-81
2023/06/29 01:55:19;;;;;;;49.22;30.98;;;;;;;17.62;100.00;101550.09;4946705;29;20062;-81
2023/06/29 01:57:47;;;;;;;42.22;28.33;;;;;;;17.62;100.00;101545.63;4954199;28;20055;-82
2023/06/29 02:00:15;;;;;;;44.00;28.33;;;;;;;17.64;100.00;101545.59;4951000;28;20051;-81
2023/06/29 02:02:42;;;;;;;46.80;29.33;;;;;;;17.63;100.00;101543.81;4945333;28;20434;-81
2023/06/29 02:05:10;;;;;;;46.63;28.85;;;;;;;17.64;100.00;101545.59;4924207;28;20055;-82
2023/06/29 02:07:39;;;;;;;46.47;29.92;;;;;;;17.63;100.00;101544.69;4936505;29;20055;-81
2023/06/29 02:10:07;;;;;;;42.35;28.10;;;;;;;17.64;100.00;101550.94;4953236;29;20499;-81
2023/06/29 02:12:39;;;;;;;44.33;27.48;;;;;;;17.64;100.00;101549.13;4966549;28;20529;-83
2023/06/29 02:15:08;;;;;;;44.25;30.05;;;;;;;17.64;100.00;101540.28;4954218;29;20051;-82
2023/06/29 02:17:35;;;;;;;44.63;30.30;;;;;;;17.65;100.00;101542.88;4936547;29;20051;-82
2023/06/29 02:20:03;;;;;;;43.10;28.42;;;;;;;17.64;100.00;101541.16;4926926;28;20047;-82
2023/06/29 02:22:30;;;;;;;45.22;29.48;;;;;;;17.65;100.00;101550.00;4921590;29;20051;-81
2023/06/29 02:24:58;;;;;;;49.10;30.45;;;;;;;17.65;100.00;101547.34;4934186;29;20048;-81
2023/06/29 02:27:28;;;;;;;51.35;30.45;;;;;;;17.65;100.00;101552.69;4963533;28;20054;-81
2023/06/29 02:29:58;;;;;;;49.03;29.27;;;;;;;17.65;100.00;101544.69;4930970;29;20059;-82
2023/06/29 02:32:25;;;;;;;44.75;30.33;;;;;;;17.64;100.00;101546.47;4968361;28;20047;-82
2023/06/29 02:34:53;;;;;;;42.55;27.77;;;;;;;17.65;100.00;101534.03;4959462;28;20399;-82
2023/06/29 02:37:21;;;;;;;45.28;29.27;;;;;;;17.65;100.00;101534.03;4936207;29;20070;-81
2023/06/29 02:39:49;;;;;;;42.83;28.63;;;;;;;17.66;100.00;101535.78;4979734;28;20051;-82
2023/06/29 02:42:16;;;;;;;40.78;28.50;;;;;;;17.65;100.00;101531.34;4952812;29;20051;-82
2023/06/29 02:44:44;;;;;;;46.92;29.50;;;;;;;17.65;100.00;101520.69;4968562;28;20059;-82
2023/06/29 02:47:17;;;;;;;45.10;29.02;;;;;;;17.64;100.00;101521.63;4968089;28;20059;-81
2023/06/29 02:49:45;;;;;;;46.20;27.88;;;;;;;17.64;100.00;101518.94;4936424;29;20050;-81
2023/06/29 02:52:15;;;;;;;42.30;28.47;;;;;;;17.64;100.00;101521.63;4935708;28;20466;-82
2023/06/29 02:54:42;;;;;;;47.70;28.73;;;;;;;17.61;100.00;101514.53;4946765;29;20071;-82
2023/06/29 02:57:10;;;;;;;49.78;29.63;;;;;;;17.62;100.00;101520.75;4976244;28;20047;-82
2023/06/29 02:59:39;;;;;;;42.92;28.77;;;;;;;17.62;100.00;101515.44;4953185;29;20047;-81
2023/06/29 03:02:06;;;;;;;48.25;29.63;;;;;;;17.61;100.00;101508.34;4948147;29;20048;-81
2023/06/29 03:04:34;;;;;;;46.65;28.58;;;;;;;17.61;100.00;101511.88;4948689;29;20055;-82
2023/06/29 03:07:01;;;;;;;46.65;28.30;;;;;;;17.62;100.00;101515.44;4924868;28;20426;-81
2023/06/29 03:09:31;;;;;;;46.10;30.30;;;;;;;17.62;100.00;101512.78;4949792;29;20043;-81
2023/06/29 03:11:58;;;;;;;46.03;29.08;;;;;;;17.62;100.00;101497.66;4932551;29;20044;-82
2023/06/29 03:14:26;;;;;;;44.80;30.23;;;;;;;17.61;100.00;101495.88;4963392;28;20414;-82
2023/06/29 03:16:53;;;;;;;54.10;29.38;;;;;;;17.62;100.00;101496.78;4954468;28;20052;-82
2023/06/29 03:19:20;;;;;;;44.70;29.48;;;;;;;17.61;100.00;101492.34;4956395;28;20055;-82
2023/06/29 03:21:48;;;;;;;47.15;29.77;;;;;;;17.62;100.00;101494.13;4947708;28;20059;-82
2023/06/29 03:24:15;;;;;;;45.22;30.27;;;;;;;17.61;100.00;101500.34;4965197;28;20066;-82
2023/06/29 03:26:43;;;;;;;48.05;30.48;;;;;;;17.62;100.00;101492.31;4979403;28;20694;-83
2023/06/29 03:29:10;;;;;;;46.90;29.73;;;;;;;17.61;100.00;101489.66;4951388;29;20059;-82
2023/06/29 03:31:37;;;;;;;45.83;30.65;;;;;;;17.62;100.00;101489.66;4947251;29;20059;-81
2023/06/29 03:34:05;;;;;;;52.00;31.70;;;;;;;17.62;100.00;101491.44;4984016;28;20078;-81
2023/06/29 03:36:32;;;;;;;44.92;30.10;;;;;;;17.62;100.00;101491.44;4908840;28;20062;-81
2023/06/29 03:39:00;;;;;;;45.72;29.95;;;;;;;17.62;100.00;101495.00;4962868;28;20047;-81
2023/06/29 03:41:27;;;;;;;50.42;31.55;;;;;;;17.63;100.00;101490.53;4960893;28;20691;-81
2023/06/29 03:43:55;;;;;;;49.03;29.73;;;;;;;17.64;100.00;101487.84;4949703;29;20070;-81
2023/06/29 03:46:24;;;;;;;50.03;30.60;;;;;;;17.65;100.00;101486.06;4966015;28;20062;-81
2023/06/29 03:48:51;;;;;;;48.38;27.95;;;;;;;17.65;100.00;101480.72;4963750;28;20499;-82
2023/06/29 03:51:19;;;;;;;45.80;28.25;;;;;;;17.67;100.00;101484.25;4936125;29;20044;-81
2023/06/29 03:53:46;;;;;;;49.30;29.52;;;;;;;17.68;100.00;101488.69;4871164;29;20154;-81
2023/06/29 03:56:14;;;;;;;42.33;28.13;;;;;;;17.70;100.00;101494.88;4967381;28;20047;-81
2023/06/29 03:58:41;;;;;;;44.22;28.65;;;;;;;17.69;100.00;101491.31;4948766;29;20785;-81
2023/06/29 04:01:08;;;;;;;46.20;29.13;;;;;;;17.71;100.00;101496.59;4952289;28;20050;-81
2023/06/29 04:03:36;;;;;;;43.80;29.67;;;;;;;17.71;100.00;101494.84;4940824;28;20047;-81
2023/06/29 04:06:03;;;;;;;44.88;28.55;;;;;;;17.73;100.00;101498.38;4942056;29;20055;-81
2023/06/29 04:08:32;;;;;;;42.13;29.05;;;;;;;17.74;100.00;101500.09;4905536;28;20074;-81
2023/06/29 04:10:59;;;;;;;42.47;29.05;;;;;;;17.77;100.00;101498.28;4936370;29;20035;-81
2023/06/29 04:13:27;;;;;;;42.92;27.63;;;;;;;17.78;100.00;101490.28;4938967;29;20067;-81
2023/06/29 04:15:54;;;;;;;49.30;29.95;;;;;;;17.80;100.00;101495.59;4952211;29;20490;-81
2023/06/29 04:18:22;;;;;;;38.83;26.65;;;;;;;17.81;100.00;101487.56;4948629;29;20067;-81
2023/06/29 04:20:49;;;;;;;45.60;27.98;;;;;;;17.84;100.00;101489.28;4940185;28;20047;-82
2023/06/29 04:23:17;;;;;;;40.65;27.05;;;;;;;17.84;100.00;101474.19;4943192;28;20046;-81
2023/06/29 04:25:44;;;;;;;42.67;28.27;;;;;;;17.87;100.00;101478.63;4898521;29;20081;-80
2023/06/29 04:28:12;;;;;;;42.78;28.25;;;;;;;17.88;100.00;101472.38;4948589;29;20495;-81
2023/06/29 04:30:42;;;;;;;43.80;27.85;;;;;;;17.89;100.00;101472.34;4945380;28;20418;-81
2023/06/29 04:33:10;;;;;;;40.35;27.30;;;;;;;17.90;100.00;101474.13;4950108;29;20047;-81
2023/06/29 04:35:41;;;;;;;39.75;26.08;;;;;;;17.93;100.00;101474.03;4951289;29;20049;-82
2023/06/29 04:38:10;;;;;;;44.22;27.15;;;;;;;17.95;100.00;101470.50;4981367;28;20047;-82
2023/06/29 04:40:38;;;;;;;40.08;26.75;;;;;;;17.97;100.00;101466.00;4899463;29;20422;-80
2023/06/29 04:43:06;;;;;;;40.85;26.98;;;;;;;17.98;100.00;101460.66;4928216;29;20059;-80
2023/06/29 04:45:33;;;;;;;37.40;24.83;;;;;;;18.01;100.00;101465.03;4910930;29;20085;-80
2023/06/29 04:48:01;;;;;;;38.58;25.83;;;;;;;18.05;100.00;101461.41;4964562;28;20066;-81
2023/06/29 04:50:35;;;;;;;37.72;25.75;;;;;;;18.07;100.00;101464.91;4933781;29;20059;-81
2023/06/29 04:53:09;;;;;;;35.97;25.17;;;;;;;18.10;100.00;101460.41;4947783;29;20046;-81
2023/06/29 04:55:37;;;;;;;36.05;25.45;;;;;;;18.14;100.00;101469.25;4931963;28;20066;-83
2023/06/29 04:58:05;;;;;;;38.15;25.13;;;;;;;18.16;100.00;101459.41;4935975;29;20054;-80
2023/06/29 05:00:33;;;;;;;38.05;23.75;;;;;;;18.21;100.00;101462.88;4932543;29;20047;-79
2023/06/29 05:03:00;;;;;;;39.30;25.50;;;;;;;18.26;100.00;101455.69;4940189;28;20047;-82
2023/06/29 05:05:28;;;;;;;37.05;24.17;;;;;;;18.31;100.00;101461.78;4890113;29;20059;-81
2023/06/29 05:07:55;;;;;;;42.97;24.63;;;;;;;18.37;100.00;101457.25;4954348;28;20082;-81
2023/06/29 05:10:23;;;;;;;34.05;23.35;;;;;;;18.42;100.00;101460.72;4881016;28;20784;-81
2023/06/29 05:12:50;;;;;;;35.10;23.17;;;;;;;18.47;100.00;101461.53;4975709;28;20427;-82
2023/06/29 05:15:18;;;;;;;32.95;22.92;;;;;;;18.53;100.00;101464.06;4959818;28;20069;-82
2023/06/29 05:17:45;;;;;;;31.38;23.20;;;;;;;18.59;100.00;101463.06;4931917;29;20066;-81
2023/06/29 05:20:14;;;;;;;36.78;23.98;;;;;;;18.66;100.00;101460.22;4944935;29;20058;-82
2023/06/29 05:22:42;;;;;;;36.20;22.15;;;;;;;18.74;100.00;101467.22;4950084;28;20537;-82
2023/06/29 05:25:09;;;;;;;34.15;23.70;;;;;;;18.80;100.00;101459.06;4921304;29;20059;-83
2023/06/29 05:27:37;;;;;;;34.88;22.45;;;;;;;18.86;100.00;101464.28;4931278;28;20043;-84
2023/06/29 05:30:06;;;;;;;31.00;22.75;;;;;;;18.94;100.00;101461.47;4953238;28;20051;-84
2023/06/29 05:32:34;;;;;;;34.47;23.17;;;;;;;19.02;100.00;101457.72;4965312;28;20043;-84
2023/06/29 05:35:02;;;;;;;31.83;23.10;;;;;;;19.09;100.00;101459.34;4932839;29;20052;-83
2023/06/29 05:37:30;;;;;;;33.45;22.90;;;;;;;19.18;100.00;101452.88;4954232;28;20581;-83
2023/06/29 05:39:57;;;;;;;31.52;21.25;;;;;;;19.28;100.00;101441.09;4966030;28;20051;-83
2023/06/29 05:42:26;;;;;;;29.58;20.83;;;;;;;19.38;100.00;101443.56;4923767;28;20047;-83
2023/06/29 05:44:55;;;;;;;31.20;21.92;;;;;;;19.45;100.00;101440.69;4931672;29;20055;-83
2023/06/29 05:47:22;;;;;;;31.67;21.60;;;;;;;19.51;100.00;101438.75;4920601;29;20051;-82
2023/06/29 05:49:51;;;;;;;27.92;19.67;;;;;;;19.55;100.00;101436.00;4949465;28;20055;-82
2023/06/29 05:52:18;;;;;;;25.67;18.52;;;;;;;19.57;100.00;101439.50;4951342;29;20047;-81
2023/06/29 05:54:46;;;;;;;28.15;19.05;;;;;;;19.59;100.00;101439.47;4934894;29;20506;-82
2023/06/29 05:57:13;;;;;;;24.73;17.98;;;;;;;19.58;100.00;101429.69;4917709;28;20066;-82
2023/06/29 05:59:40;;;;;;;29.40;18.55;;;;;;;19.52;100.00;101435.19;4920049;29;20051;-81
2023/06/29 06:02:09;;;;;;;27.63;18.73;;;;;;;19.50;100.00;101437.91;4953904;29;20494;-82
2023/06/29 06:04:36;;;;;;;26.42;17.45;;;;;;;19.51;100.00;101430.75;4932612;29;20043;-82
2023/06/29 06:07:04;;;;;;;26.20;19.20;;;;;;;19.52;100.00;101441.41;4959670;28;20413;-83
2023/06/29 06:09:31;;;;;;;27.98;18.85;;;;;;;19.53;100.00;101436.94;4979194;28;20495;-81
2023/06/29 06:11:58;;;;;;;28.83;17.63;;;;;;;19.56;100.00;101436.84;4928036;28;20435;-81
2023/06/29 06:14:26;;;;;;;29.02;19.08;;;;;;;19.56;100.00;101436.84;4957632;28;20043;-82
2023/06/29 06:16:53;;;;;;;29.25;19.35;;;;;;;19.59;100.00;101437.66;4977203;28;20473;-81
2023/06/29 06:19:21;;;;;;;24.70;18.58;;;;;;;19.62;100.00;101442.94;4965364;28;20044;-81
2023/06/29 06:21:48;;;;;;;23.90;17.85;;;;;;;19.67;100.00;101435.66;4965118;28;20047;-82
2023/06/29 06:24:15;;;;;;;29.30;18.33;;;;;;;19.77;100.00;101440.81;4937359;29;20427;-83
2023/06/29 06:26:43;;;;;;;27.05;18.92;;;;;;;19.85;100.00;101429.03;4963214;28;20055;-83
2023/06/29 06:29:10;;;;;;;30.88;19.17;;;;;;;19.99;100.00;101431.31;4939896;28;20058;-83
2023/06/29 06:31:37;;;;;;;28.35;18.83;;;;;;;20.15;100.00;101433.56;4951910;29;20062;-81
2023/06/29 06:34:07;;;;;;;29.02;19.67;;;;;;;20.27;100.00;101432.38;4934523;29;20421;-82
2023/06/29 06:36:36;;;;;;;25.35;18.55;;;;;;;20.36;100.00;101429.41;4951421;29;20055;-81
2023/06/29 06:39:03;;;;;;;27.90;18.45;;;;;;;20.47;100.00;101421.09;4933609;29;20051;-82
2023/06/29 06:41:32;;;;;;;23.60;18.50;;;;;;;20.54;100.00;101425.34;4953701;28;20058;-82
2023/06/29 06:43:59;;;;;;;26.70;18.48;;;;;;;20.58;100.00;101425.19;4904340;29;20043;-81
2023/06/29 06:46:30;;;;;;;25.40;18.00;;;;;;;20.59;100.00;101426.09;4953734;28;20062;-82
2023/06/29 06:48:57;;;;;;;;;;;;;;;20.61;100.00;101427.84;4945318;29;20051;-82
2023/06/29 06:51:30;;;;;;;26.00;17.95;;;;;;;20.62;100.00;101429.59;4961727;28;19922;-84
2023/06/29 06:53:58;;;;;;;29.35;19.48;;;;;;;20.60;100.00;101426.09;4951502;29;20043;-83
2023/06/29 06:56:25;;;;;;;23.80;17.05;;;;;;;20.61;100.00;101422.47;4952921;29;20066;-84
2023/06/29 06:58:52;;;;;;;25.20;17.27;;;;;;;20.60;100.00;101415.38;4947783;28;20055;-82
2023/06/29 07:01:21;;;;;;;24.52;16.35;;;;;;;20.59;100.00;101416.25;4969717;28;20047;-83
2023/06/29 07:03:49;;;;;;;26.27;16.65;;;;;;;20.61;100.00;101425.16;4951358;28;20056;-84
2023/06/29 07:06:18;;;;;;;24.23;17.10;;;;;;;20.61;100.00;101418.94;4970025;28;20055;-82
2023/06/29 07:08:45;;;;;;;26.80;17.00;;;;;;;20.60;100.00;101417.16;4932354;29;20498;-82
2023/06/29 07:11:13;;;;;;;24.42;16.92;;;;;;;20.60;100.00;101414.47;4953019;29;20062;-83
2023/06/29 07:13:40;;;;;;;27.33;17.73;;;;;;;20.60;100.00;101410.03;4947078;28;20040;-83
2023/06/29 07:16:08;;;;;;;25.17;16.85;;;;;;;20.60;100.00;101420.75;4939921;28;20046;-86
2023/06/29 07:18:38;;;;;;;24.33;16.45;;;;;;;20.60;100.00;101419.84;4936341;29;20046;-86
2023/06/29 07:21:05;;;;;;;23.52;17.27;;;;;;;20.57;100.00;101410.06;4951009;29;20054;-86
2023/06/29 07:23:36;;;;;;;26.45;16.77;;;;;;;20.57;100.00;101418.09;4957387;28;20086;-86
2023/06/29 07:26:06;;;;;;;24.70;16.83;;;;;;;20.59;100.00;101418.94;4936378;29;20046;-86
2023/06/29 07:28:34;;;;;;;24.83;17.83;;;;;;;20.58;100.00;101417.16;4968821;28;20055;-86
2023/06/29 07:31:01;;;;;;;26.02;16.92;;;;;;;20.58;100.00;101417.16;4921617;28;20050;-86
2023/06/29 07:33:30;;;;;;;24.38;17.45;;;;;;;20.57;100.00;101402.03;4949189;29;20043;-86
2023/06/29 07:36:00;;;;;;;27.60;17.90;;;;;;;20.57;100.00;101402.03;4922307;29;20067;-84
2023/06/29 07:38:28;;;;;;;24.88;16.75;;;;;;;20.59;100.00;101410.91;4939543;29;20040;-86
2023/06/29 07:40:55;;;;;;;28.38;17.25;;;;;;;20.57;100.00;101412.75;4921808;29;20046;-86
2023/06/29 07:43:22;;;;;;;23.45;16.75;;;;;;;20.57;100.00;101402.03;4954420;29;20058;-86
2023/06/29 07:45:50;;;;;;;24.17;16.77;;;;;;;20.60;100.00;101414.47;4945072;28;20055;-86
2023/06/29 07:48:17;;;;;;;26.33;17.83;;;;;;;20.57;100.00;101401.19;4970859;28;20069;-86
2023/06/29 07:50:45;;;;;;;23.77;17.35;;;;;;;20.57;100.00;101401.19;4919983;29;20059;-86
2023/06/29 07:53:12;;;;;;;22.25;16.35;;;;;;;20.53;100.00;101403.06;4952267;29;20051;-87
2023/06/29 07:55:40;;;;;;;22.80;16.25;;;;;;;20.51;100.00;101399.56;4933224;29;20055;-86
2023/06/29 07:58:07;;;;;;;23.95;18.17;;;;;;;20.48;100.00;101396.97;4960243;28;20058;-85
2023/06/29 08:00:37;;;;;;;28.45;18.08;;;;;;;20.47;100.00;101395.19;4942108;28;20071;-85
2023/06/29 08:03:05;;;;;;;24.35;17.15;;;;;;;20.46;100.00;101404.16;4983764;28;20047;-85
2023/06/29 08:05:32;;;;;;;29.38;17.58;;;;;;;20.44;100.00;101397.97;4921394;29;20423;-85
2023/06/29 08:08:03;;;;;;;23.52;16.60;;;;;;;20.43;100.00;101393.53;4952131;29;20062;-85
2023/06/29 08:10:31;;;;;;;24.00;16.60;;;;;;;20.42;100.00;101384.63;4953138;29;20050;-85
2023/06/29 08:12:59;;;;;;;28.20;18.40;;;;;;;20.44;100.00;101384.59;4935469;29;20443;-84
2023/06/29 08:15:26;;;;;;;27.13;16.38;;;;;;;20.45;100.00;101380.97;4919508;29;20055;-84
2023/06/29 08:17:54;;;;;;;25.48;17.35;;;;;;;20.44;100.00;101382.78;4955402;28;20569;-85
2023/06/29 08:20:22;;;;;;;23.17;16.80;;;;;;;20.45;100.00;101381.88;4955065;29;20414;-86
2023/06/29 08:22:49;;;;;;;27.42;16.58;;;;;;;20.48;100.00;101380.91;4935495;29;20070;-85
2023/06/29 08:25:17;;;;;;;26.77;17.33;;;;;;;20.49;100.00;101374.63;4947357;28;20059;-85
2023/06/29 08:27:44;;;;;;;23.77;16.50;;;;;;;20.49;100.00;101371.97;4985445;28;20039;-86
2023/06/29 08:30:12;;;;;;;27.33;17.80;;;;;;;20.47;100.00;101372.91;4954217;29;20058;-85
2023/06/29 08:32:43;;;;;;;28.60;18.00;;;;;;;20.47;100.00;101375.59;4883528;29;20060;-85
2023/06/29 08:35:11;;;;;;;25.13;17.40;;;;;;;20.48;100.00;101372.00;4953451;28;20051;-81
2023/06/29 08:37:38;;;;;;;27.30;17.27;;;;;;;20.47;100.00;101379.13;4960780;28;20051;-84
2023/06/29 08:40:07;;;;;;;24.77;16.95;;;;;;;20.48;100.00;101370.19;4938011;29;20048;-83
2023/06/29 08:42:37;;;;;;;28.27;18.67;;;;;;;20.49;100.00;101366.59;4950325;29;20536;-83
2023/06/29 08:45:08;;;;;;;25.23;18.00;;;;;;;20.48;100.00;101367.50;4934058;29;20054;-82
2023/06/29 08:47:37;;;;;;;25.15;18.85;;;;;;;20.49;100.00;101371.06;4976416;28;20047;-83
2023/06/29 08:50:08;;;;;;;27.52;18.05;;;;;;;20.53;100.00;101370.94;4945322;28;20047;-85
2023/06/29 08:52:36;;;;;;;;;;;;;;;20.54;100.00;101367.31;4963706;28;20070;-82
2023/06/29 08:55:05;;;;;;;32.55;18.02;;;;;;;20.60;100.00;101377.00;4947386;29;19934;-82
2023/06/29 08:57:34;;;;;;;26.05;18.38;;;;;;;20.61;100.00;101376.97;4934325;29;20059;-83
2023/06/29 09:00:05;;;;;;;22.75;16.50;;;;;;;20.67;100.00;101369.66;4932521;29;20573;-83
2023/06/29 09:02:33;;;;;;;;;;;;;;;20.71;100.00;101369.53;4935372;29;20047;-83
2023/06/29 09:05:02;;;;;;;28.90;18.05;;;;;;;20.78;100.00;101367.53;4911460;28;19929;-82
2023/06/29 09:07:30;;;;;;;26.25;18.13;;;;;;;20.85;100.00;101369.13;4951494;28;20070;-82
2023/06/29 09:09:57;;;;;;;25.52;19.92;;;;;;;20.94;100.00;101362.56;4947037;28;20517;-84
2023/06/29 09:12:27;;;;;;;25.25;18.95;;;;;;;21.03;100.00;101362.28;4932537;29;20058;-83
2023/06/29 09:14:57;;;;;;;33.03;19.03;;;;;;;21.09;100.00;101367.44;4946532;29;20608;-82
2023/06/29 09:17:24;;;;;;;22.47;17.07;;;;;;;21.16;100.00;101360.09;4965200;28;20422;-83
2023/06/29 09:19:56;;;;;;;29.45;19.70;;;;;;;21.23;100.00;101358.97;4915016;28;20307;-83
2023/06/29 09:22:27;;;;;;;25.25;18.92;;;;;;;21.33;100.00;101355.03;4918301;29;20070;-82
2023/06/29 09:24:58;;;;;;;25.00;19.30;;;;;;;21.42;100.00;101352.03;4931570;29;20043;-83
2023/06/29 09:27:36;;;;;;;28.23;18.77;;;;;;;21.53;100.00;101346.34;4948432;29;20062;-84
2023/06/29 09:30:04;;;;;;;25.80;18.00;;;;;;;21.67;100.00;101343.19;4931712;29;20051;-84
2023/06/29 09:32:37;;;;;;;30.55;20.23;;;;;;;21.82;100.00;101348.94;4949940;29;20067;-82
2023/06/29 09:35:06;;;;;;;27.60;18.88;;;;;;;21.88;100.00;101346.03;4931451;28;20948;-83
2023/06/29 09:37:35;;;;;;;27.20;18.10;;;;;;;21.95;100.00;101336.84;4949061;29;20047;-84
2023/06/29 09:40:22;;;;;;;26.85;19.88;;;;;;;22.02;100.00;101342.84;4931457;29;20051;-83
2023/06/29 09:42:49;;;;;;;29.95;18.60;;;;;;;22.06;100.00;101340.00;4946866;29;20054;-83
2023/06/29 09:45:17;;;;;;;24.60;18.02;;;;;;;22.10;100.00;101332.72;4967283;28;20133;-83
2023/06/29 09:47:51;;;;;;;26.63;17.75;;;;;;;22.15;100.00;101336.06;4929888;29;20051;-84
2023/06/29 09:50:22;;;;;;;28.05;18.35;;;;;;;22.19;100.00;101343.06;4935331;28;20062;-83
2023/06/29 09:52:51;;;;;;;24.48;16.45;;;;;;;22.22;100.00;101337.59;4946870;29;20081;-84
2023/06/29 09:55:29;;;;;;;24.85;17.52;;;;;;;22.26;100.00;101343.75;4934799;29;20043;-84
2023/06/29 09:57:57;;;;;;;26.63;19.10;;;;;;;22.29;100.00;101336.47;4964163;28;20554;-82
2023/06/29 10:00:27;;;;;;;30.88;19.45;;;;;;;22.32;100.00;101340.84;4948751;29;20059;-82
2023/06/29 10:02:55;;;;;;;28.70;18.98;;;;;;;22.31;100.00;101334.59;4962841;28;20065;-82
2023/06/29 10:05:24;;;;;;;24.30;16.60;;;;;;;22.35;100.00;101330.00;4949601;29;20514;-83
2023/06/29 10:07:53;;;;;;;28.35;18.10;;;;;;;22.39;100.00;101339.69;4918180;28;20043;-83
2023/06/29 10:10:23;;;;;;;28.27;17.73;;;;;;;22.42;100.00;101336.00;4950153;29;20066;-84
2023/06/29 10:12:52;;;;;;;;;;;;;;;22.45;100.00;101334.06;4947531;29;20051;-82
2023/06/29 10:15:25;;;;;;;24.25;17.58;;;;;;;22.43;100.00;101327.88;4950194;29;19922;-83
2023/06/29 10:18:14;;;;;;;24.80;17.02;;;;;;;22.47;100.00;101329.50;4952999;28;20525;-79
2023/06/29 10:20:46;;;;;;;27.90;18.63;;;;;;;22.51;100.00;101325.78;4916878;28;20518;-79
2023/06/29 10:23:15;;;;;;;;;;;;;;;22.52;100.00;101319.47;4921602;28;20059;-80
2023/06/29 10:25:48;;;;;;;29.08;18.80;;;;;;;22.52;100.00;101324.84;4931002;29;19922;-80
2023/06/29 10:28:18;;;;;;;25.42;19.05;;;;;;;22.50;100.00;101315.09;4966953;28;20055;-80
2023/06/29 10:30:47;;;;;;;26.55;18.08;;;;;;;22.48;100.00;101307.09;4950521;29;20054;-80
2023/06/29 10:33:22;;;;;;;25.40;17.10;;;;;;;22.48;100.00;101312.47;4950706;29;20055;-80
2023/06/29 10:36:04;;;;;;;25.42;16.92;;;;;;;22.49;100.00;101318.72;4898568;28;20043;-80
2023/06/29 10:38:35;;;;;;;26.10;18.45;;;;;;;22.44;100.00;101313.53;4936461;29;21283;-81
2023/06/29 10:41:08;;;;;;;26.73;18.30;;;;;;;22.33;100.00;101316.63;4899736;29;20051;-80
2023/06/29 10:44:05;;;;;;;24.27;18.00;;;;;;;22.20;100.00;101323.38;4934134;28;20052;-80
2023/06/29 10:46:48;;;;;;;26.98;19.52;;;;;;;22.02;100.00;101322.22;4968945;28;20055;-80
2023/06/29 10:49:21;;;;;;;32.95;21.13;;;;;;;21.86;100.00;101321.06;4964874;28;20051;-80
2023/06/29 10:51:53;;;;;;;29.58;20.08;;;;;;;21.70;100.00;101318.94;4906586;28;20735;-80
2023/06/29 10:54:26;;;;;;;29.20;21.05;;;;;;;21.56;100.00;101316.72;4940989;28;20051;-79
2023/06/29 10:57:07;;;;;;;32.45;21.58;;;;;;;21.50;100.00;101310.72;4929242;28;20035;-80
2023/06/29 10:59:36;;;;;;;27.15;19.88;;;;;;;21.43;100.00;101304.66;4915711;29;20059;-80
2023/06/29 11:02:06;;;;;;;25.70;20.23;;;;;;;21.41;100.00;101311.88;4943831;28;20051;-81
2023/06/29 11:04:39;;;;;;;36.15;22.80;;;;;;;21.37;100.00;101307.56;4950480;29;20050;-81
2023/06/29 11:07:07;;;;;;;30.23;21.13;;;;;;;21.31;100.00;101308.63;4909686;28;20063;-81
2023/06/29 11:09:35;;;;;;;34.15;24.50;;;;;;;21.28;100.00;101307.88;4950448;28;20071;-80
2023/06/29 11:12:02;;;;;;;28.75;22.50;;;;;;;21.23;100.00;101303.53;4926383;28;20047;-79
2023/06/29 11:14:37;;;;;;;32.17;22.77;;;;;;;21.20;100.00;101305.44;4967253;28;20059;-79
2023/06/29 11:17:08;;;;;;;32.50;23.58;;;;;;;21.17;100.00;101295.72;4947973;29;20047;-79
2023/06/29 11:19:42;;;;;;;29.77;22.15;;;;;;;21.15;100.00;101302.03;4965609;28;20059;-80
2023/06/29 11:22:10;;;;;;;32.00;23.13;;;;;;;21.10;100.00;101299.53;4909341;28;20071;-80
2023/06/29 11:24:40;;;;;;;30.33;22.27;;;;;;;21.07;100.00;101302.28;4932403;28;20055;-79
2023/06/29 11:27:08;;;;;;;34.42;23.30;;;;;;;21.04;100.00;101302.41;4950590;28;20066;-79
2023/06/29 11:29:36;;;;;;;31.55;22.65;;;;;;;21.01;100.00;101305.19;4934043;29;20050;-79
2023/06/29 11:32:09;;;;;;;31.67;23.92;;;;;;;21.02;100.00;101305.16;4944005;29;20063;-79
2023/06/29 11:34:38;;;;;;;34.72;23.67;;;;;;;21.05;100.00;101297.94;4936771;29;20051;-79
2023/06/29 11:37:05;;;;;;;33.95;23.70;;;;;;;21.08;100.00;101304.06;4949609;29;20051;-80
2023/06/29 11:39:48;;;;;;;33.15;22.75;;;;;;;21.12;100.00;101299.47;4905966;28;20064;-79
2023/06/29 11:42:19;;;;;;;31.48;23.27;;;;;;;21.17;100.00;101294.81;4942166;28;20063;-80
2023/06/29 11:45:04;;;;;;;35.83;23.25;;;;;;;21.19;100.00;101298.31;4929639;29;20082;-79
2023/06/29 11:47:31;;;;;;;30.95;23.27;;;;;;;21.26;100.00;101296.31;4953061;28;20066;-81
2023/06/29 11:50:01;;;;;;;29.67;22.98;;;;;;;21.31;100.00;101291.69;4930959;29;20043;-80
2023/06/29 11:52:32;;;;;;;31.35;21.65;;;;;;;21.32;100.00;101299.69;4934609;28;20051;-80
2023/06/29 11:55:01;;;;;;;29.20;21.13;;;;;;;21.30;100.00;101290.78;4929468;28;20533;-79
2023/06/29 11:57:33;;;;;;;27.90;20.25;;;;;;;21.30;100.00;101296.16;4932305;29;20791;-78
2023/06/29 12:00:04;;;;;;;31.40;20.98;;;;;;;21.28;100.00;101284.59;4960837;28;20601;-79
2023/06/29 12:02:40;;;;;;;31.23;21.27;;;;;;;21.26;100.00;101291.81;4940533;28;20511;-79
2023/06/29 12:05:08;;;;;;;30.27;20.65;;;;;;;21.26;100.00;101286.47;4945273;29;20050;-79
2023/06/29 12:07:41;;;;;;;28.40;20.85;;;;;;;21.28;100.00;101284.59;4916214;29;20058;-79
2023/06/29 12:10:23;;;;;;;26.90;21.83;;;;;;;21.31;100.00;101286.31;4906483;28;20082;-79
2023/06/29 12:12:55;;;;;;;28.38;21.75;;;;;;;21.33;100.00;101282.66;4952427;28;20051;-79
2023/06/29 12:15:27;;;;;;;27.30;21.58;;;;;;;21.35;100.00;101277.25;4933080;29;20415;-78
2023/06/29 12:18:11;;;;;;;30.13;21.25;;;;;;;21.39;100.00;101278.88;4960346;28;20054;-80
2023/06/29 12:20:45;;;;;;;31.05;23.00;;;;;;;21.42;100.00;101276.97;4931217;29;20055;-79
2023/06/29 12:23:14;;;;;;;33.03;23.75;;;;;;;21.43;100.00;101277.84;4947998;29;20080;-79
2023/06/29 12:25:46;;;;;;;29.08;20.77;;;;;;;21.48;100.00;101277.72;4893768;29;20054;-79
2023/06/29 12:28:16;;;;;;;28.77;22.05;;;;;;;21.59;100.00;101270.19;4947639;29;20054;-79
2023/06/29 12:30:44;;;;;;;30.77;21.70;;;;;;;21.71;100.00;101269.72;4935771;28;20088;-79
2023/06/29 12:33:12;;;;;;;32.08;23.08;;;;;;;21.87;100.00;101266.47;4948753;29;20077;-79
2023/06/29 12:35:44;;;;;;;30.38;23.25;;;;;;;22.01;100.00;101266.84;4930989;29;20051;-79